This is the latest recevied weather packets stored in our database for station/object K0PFX-8. If no packets are shown the sender has not sent any weather packets the latest 10 day(s).
| Time | Temp. | Humidity | Pressure | Rain* | Wind** | Luminosity | Snow |
|---|---|---|---|---|---|---|---|
| 1778105957 | 16.11° C | 35% | 1016.5 hPa | 0 mm | 1.79 m/s, 235° | - | - |
| 1778105056 | 15.56° C | 36% | 1016.5 hPa | 0 mm | 2.68 m/s, 322° | - | - |
| 1778104157 | 16.11° C | 34% | 1016.6 hPa | 0 mm | 3.13 m/s, 312° | - | - |
| 1778103256 | 15° C | 38% | 1016.6 hPa | 0 mm | 1.34 m/s, 24° | - | - |
| 1778102358 | 16.11° C | 38% | 1016.7 hPa | 0 mm | 4.92 m/s, 245° | - | - |
| 1778101457 | 16.67° C | 40% | 1016.8 hPa | 0 mm | 4.92 m/s, 211° | - | - |
| 1778100558 | 15.56° C | 39% | 1016.8 hPa | 0 mm | 3.13 m/s, 291° | - | - |
| 1778099657 | 15.56° C | 37% | 1017.2 hPa | 0 mm | 3.58 m/s, 301° | - | - |
| 1778098759 | 15.56° C | 35% | 1017.4 hPa | 0 mm | 1.79 m/s, 45° | - | - |
| 1778097857 | 15.56° C | 37% | 1017.4 hPa | 0 mm | 2.68 m/s, 46° | - | - |
| 1778096058 | 16.11° C | 39% | 1017.5 hPa | 0 mm | 4.92 m/s, 264° | - | - |
| 1778095161 | 15.56° C | 39% | 1017.7 hPa | 0 mm | 2.68 m/s, 249° | - | - |
| 1778094258 | 15.56° C | 33% | 1017.6 hPa | 0 mm | 3.13 m/s, 322° | - | - |
| 1778092459 | 15° C | 33% | 1017.4 hPa | 0 mm | 2.68 m/s, 315° | - | - |
| 1778091560 | 15° C | 32% | 1017.6 hPa | 0 mm | 2.68 m/s, 349° | - | - |
| 1778090659 | 15° C | 38% | 1017.7 hPa | 0 mm | 2.68 m/s, 319° | - | - |
| 1778089761 | 15° C | 38% | 1017.6 hPa | 0 mm | 1.79 m/s, 359° | - | - |
| 1778088861 | 14.44° C | 36% | 1017.8 hPa | 0 mm | 1.79 m/s, 338° | - | - |
| 1778087961 | 14.44° C | 44% | 1017.8 hPa | 0 mm | 2.68 m/s, 359° | - | - |
| 1778087060 | 13.89° C | 60% | 1017.7 hPa | 0 mm | 4.02 m/s, 249° | - | - |
| 1778086161 | 13.33° C | 73% | 1017.7 hPa | 0 mm | 1.34 m/s, 276° | - | - |
| 1778085260 | 12.22° C | 81% | 1017.6 hPa | 0 mm | 2.24 m/s, 316° | - | - |
| 1778084362 | 11.67° C | 83% | 1017.7 hPa | 0 mm | 4.02 m/s, 250° | - | - |
| 1778083461 | 11.67° C | 85% | 1017.5 hPa | 0 mm | 2.68 m/s, 288° | - | - |
| 1778082562 | 11.11° C | 86% | 1017.5 hPa | 0 mm | 1.34 m/s, 281° | - | - |
* Rain latest hour (hover to see other rain measurements)
** Current wind speed in m/s (hover to see current wind gust speed)